createdAt,value
2019-05-21T00:00:31.545Z,99.94
2019-05-21T00:03:36.718Z,99.51
2019-05-21T00:06:41.766Z,99.69
2019-05-21T00:09:46.890Z,97.81
2019-05-21T00:12:51.960Z,97.70
2019-05-21T00:15:57.032Z,99.01
2019-05-21T00:19:02.138Z,98.63
2019-05-21T00:22:07.274Z,98.58
2019-05-21T00:25:16.743Z,98.08
2019-05-21T00:28:39.930Z,98.79
2019-05-21T00:32:21.334Z,99.04
2019-05-21T00:36:02.462Z,98.53
2019-05-21T00:39:43.676Z,98.74
2019-05-21T00:42:48.928Z,98.66
2019-05-21T00:45:54.078Z,97.70
2019-05-21T00:48:59.252Z,98.11
2019-05-21T00:52:08.553Z,97.47
2019-05-21T00:55:11.601Z,97.53
2019-05-21T00:58:16.743Z,97.95
2019-05-21T01:01:22.076Z,97.71
2019-05-21T01:04:27.196Z,97.92
2019-05-21T01:07:32.396Z,98.10
2019-05-21T01:10:37.536Z,98.10
2019-05-21T01:13:42.732Z,97.74
2019-05-21T01:16:47.845Z,98.09
2019-05-21T01:19:53.017Z,98.07
2019-05-21T01:22:58.739Z,98.60
2019-05-21T01:26:03.902Z,98.32
2019-05-21T01:29:09.069Z,99.00
2019-05-21T01:32:14.260Z,98.08
2019-05-21T01:35:19.406Z,97.24
2019-05-21T01:38:24.512Z,97.26
2019-05-21T01:41:29.815Z,96.31
2019-05-21T01:44:35.009Z,96.98
2019-05-21T01:47:40.312Z,97.51
2019-05-21T01:50:45.624Z,97.91
2019-05-21T01:53:50.829Z,98.27
2019-05-21T01:56:56.002Z,98.08
2019-05-21T02:00:01.254Z,99.17
2019-05-21T02:03:06.385Z,98.83
2019-05-21T02:06:11.557Z,98.23
2019-05-21T02:09:16.730Z,98.57
2019-05-21T02:12:21.915Z,98.73
2019-05-21T02:15:27.041Z,98.75
2019-05-21T02:18:32.278Z,98.90
2019-05-21T02:21:37.398Z,99.26
2019-05-21T02:24:42.562Z,98.54
2019-05-21T02:27:47.743Z,98.32
2019-05-21T02:30:56.452Z,98.66
2019-05-21T02:34:00.003Z,97.43
2019-05-21T02:37:06.316Z,98.01
2019-05-21T02:40:15.121Z,98.89
2019-05-21T02:43:20.223Z,98.85
2019-05-21T02:46:25.361Z,97.98
2019-05-21T02:49:30.565Z,99.18
2019-05-21T02:52:35.723Z,99.53
2019-05-21T02:55:40.904Z,98.98
2019-05-21T02:58:46.134Z,98.92
2019-05-21T03:02:00.513Z,99.52
2019-05-21T03:05:06.405Z,98.98
2019-05-21T03:08:11.552Z,98.63
2019-05-21T03:11:16.840Z,99.04
2019-05-21T03:14:22.060Z,98.75
2019-05-21T03:17:27.207Z,99.08
2019-05-21T03:20:32.372Z,99.72
2019-05-21T03:23:37.562Z,100.00
2019-05-21T03:26:42.677Z,99.08
2019-05-21T03:29:47.833Z,99.14
2019-05-21T03:32:52.952Z,99.25
2019-05-21T03:35:58.199Z,98.58
2019-05-21T03:39:04.023Z,98.49
2019-05-21T03:42:09.219Z,98.07
2019-05-21T03:45:14.413Z,97.96
2019-05-21T03:48:19.584Z,99.49
2019-05-21T03:51:24.820Z,99.00
2019-05-21T03:54:29.939Z,98.03
2019-05-21T03:57:35.194Z,98.16
2019-05-21T04:00:40.323Z,98.54
2019-05-21T04:03:45.481Z,97.32
2019-05-21T04:06:52.575Z,98.22
2019-05-21T04:09:57.529Z,99.24
2019-05-21T04:13:06.683Z,100.00
2019-05-21T04:16:18.224Z,98.22
2019-05-21T04:19:26.877Z,98.15
2019-05-21T04:22:31.990Z,97.26
2019-05-21T04:25:37.131Z,98.04
2019-05-21T04:28:42.325Z,98.57
2019-05-21T04:31:47.455Z,98.99
2019-05-21T04:34:52.594Z,98.13
2019-05-21T04:37:57.712Z,97.82
2019-05-21T04:41:03.009Z,98.13
2019-05-21T04:44:08.147Z,97.81
2019-05-21T04:47:13.407Z,97.86
2019-05-21T04:50:20.261Z,97.83
2019-05-21T04:53:25.452Z,97.44
2019-05-21T04:56:30.589Z,97.48
2019-05-21T04:59:36.999Z,97.43
2019-05-21T05:02:42.178Z,97.85
2019-05-21T05:05:48.508Z,98.50
2019-05-21T05:08:53.771Z,97.73
2019-05-21T05:11:59.243Z,96.40
2019-05-21T05:15:05.347Z,97.47
2019-05-21T05:18:10.488Z,97.21
2019-05-21T05:21:15.695Z,97.03
2019-05-21T05:24:20.978Z,96.85
2019-05-21T05:27:26.237Z,96.84
2019-05-21T05:30:31.405Z,97.67
2019-05-21T05:33:36.467Z,97.56
2019-05-21T05:36:41.688Z,97.63
2019-05-21T05:39:46.934Z,97.13
2019-05-21T05:42:52.271Z,97.97
2019-05-21T05:45:57.483Z,98.16
2019-05-21T05:49:08.737Z,98.04
2019-05-21T05:52:13.926Z,98.00
2019-05-21T05:55:19.181Z,98.17
2019-05-21T05:58:24.467Z,98.09
2019-05-21T06:01:31.373Z,98.48
2019-05-21T06:04:36.638Z,97.87
2019-05-21T06:07:41.967Z,98.02
2019-05-21T06:10:47.087Z,97.72
2019-05-21T06:13:52.264Z,97.38
2019-05-21T06:16:57.395Z,97.11
2019-05-21T06:20:02.581Z,94.85
2019-05-21T06:23:07.719Z,94.12
2019-05-21T06:26:12.878Z,93.32
2019-05-21T06:29:18.091Z,93.68
2019-05-21T06:32:23.221Z,93.03
2019-05-21T06:35:28.357Z,91.62
2019-05-21T06:38:33.500Z,92.63
2019-05-21T06:41:38.632Z,92.57
2019-05-21T06:44:44.866Z,92.76
2019-05-21T06:47:50.067Z,92.75
2019-05-21T06:50:55.190Z,92.89
2019-05-21T06:54:00.395Z,93.04
2019-05-21T06:57:05.625Z,93.34
2019-05-21T07:00:11.283Z,92.54
2019-05-21T07:03:16.432Z,92.78
2019-05-21T07:06:22.465Z,93.17
2019-05-21T07:09:27.595Z,94.25
2019-05-21T07:12:32.738Z,92.78
2019-05-21T07:15:37.888Z,92.97
2019-05-21T07:18:43.018Z,93.75
2019-05-21T07:21:49.159Z,94.25
2019-05-21T07:24:55.189Z,95.09
2019-05-21T07:28:00.501Z,94.68
2019-05-21T07:31:05.646Z,94.86
2019-05-21T07:34:10.771Z,94.83
2019-05-21T07:37:15.944Z,94.05
2019-05-21T07:40:21.195Z,94.40
2019-05-21T07:43:26.539Z,93.62
2019-05-21T07:46:31.746Z,94.60
2019-05-21T07:49:36.967Z,94.34
2019-05-21T07:52:42.156Z,94.31
2019-05-21T07:55:47.340Z,94.36
2019-05-21T07:58:53.670Z,94.41
2019-05-21T08:01:58.858Z,94.95
2019-05-21T08:05:04.323Z,95.74
2019-05-21T08:08:09.502Z,96.76
2019-05-21T08:11:14.716Z,96.95
2019-05-21T08:14:19.962Z,97.33
2019-05-21T08:17:25.157Z,96.60
2019-05-21T08:20:30.539Z,97.41
2019-05-21T08:23:35.712Z,96.22
2019-05-21T08:26:40.933Z,96.07
2019-05-21T08:29:46.076Z,96.47
2019-05-21T08:32:51.198Z,96.28
2019-05-21T08:35:57.299Z,96.18
2019-05-21T08:39:02.476Z,97.17
2019-05-21T08:42:07.919Z,96.19
2019-05-21T08:45:13.995Z,96.95
2019-05-21T08:48:19.121Z,96.74
2019-05-21T08:51:24.296Z,97.29
2019-05-21T08:54:56.444Z,96.79
2019-05-21T08:58:06.885Z,96.46
2019-05-21T09:01:08.274Z,95.77
2019-05-21T09:04:13.522Z,95.08
2019-05-21T09:07:18.735Z,95.41
2019-05-21T09:10:23.867Z,93.59
2019-05-21T09:13:29.060Z,93.37
2019-05-21T09:16:34.386Z,93.68
2019-05-21T09:19:39.593Z,92.88
2019-05-21T09:22:44.848Z,92.08
2019-05-21T09:25:50.077Z,92.50
2019-05-21T09:28:55.194Z,92.71
2019-05-21T09:32:00.402Z,93.35
2019-05-21T09:35:06.435Z,92.26
2019-05-21T09:38:11.580Z,91.12
2019-05-21T09:41:16.729Z,89.22
2019-05-21T09:44:21.931Z,88.63
2019-05-21T09:47:27.137Z,88.65
2019-05-21T09:50:32.282Z,90.47
2019-05-21T09:53:37.457Z,92.63
2019-05-21T09:56:42.649Z,92.76
2019-05-21T10:00:02.488Z,91.55
2019-05-21T10:03:11.923Z,90.96
2019-05-21T10:06:17.075Z,91.68
2019-05-21T10:09:22.236Z,91.59
2019-05-21T10:12:27.373Z,91.21
2019-05-21T10:15:32.642Z,93.16
2019-05-21T10:18:37.936Z,91.83
2019-05-21T10:21:43.113Z,90.83
2019-05-21T10:24:48.390Z,90.89
2019-05-21T10:27:53.570Z,90.39
2019-05-21T10:30:58.769Z,90.06
2019-05-21T10:34:05.174Z,89.51
2019-05-21T10:37:10.372Z,91.04
2019-05-21T10:40:15.995Z,90.74
2019-05-21T10:43:21.213Z,90.54
2019-05-21T10:46:26.454Z,90.47
2019-05-21T10:49:31.628Z,91.13
2019-05-21T10:52:36.763Z,91.20
2019-05-21T10:55:41.967Z,90.22
2019-05-21T10:58:47.147Z,89.61
2019-05-21T11:02:10.054Z,87.65
2019-05-21T11:05:19.734Z,88.35
2019-05-21T11:08:25.519Z,86.86
2019-05-21T11:11:30.888Z,86.71
2019-05-21T11:14:36.019Z,86.16
2019-05-21T11:17:58.984Z,85.25
2019-05-21T11:20:48.025Z,84.46
2019-05-21T11:23:53.268Z,84.33
2019-05-21T11:26:58.659Z,82.11
2019-05-21T11:30:04.234Z,81.47
2019-05-21T11:33:09.764Z,77.89
2019-05-21T11:36:15.390Z,77.75
2019-05-21T11:39:20.578Z,77.35
2019-05-21T11:42:25.799Z,77.88
2019-05-21T11:45:32.988Z,78.11
2019-05-21T11:48:39.077Z,77.88
2019-05-21T11:51:44.184Z,77.48
2019-05-21T11:54:49.328Z,76.85
2019-05-21T11:57:54.472Z,76.26
2019-05-21T12:00:59.636Z,74.52
2019-05-21T12:04:04.870Z,75.71
2019-05-21T12:07:10.132Z,77.03
2019-05-21T12:10:15.274Z,76.71
2019-05-21T12:13:20.831Z,77.66
2019-05-21T12:16:26.033Z,78.47
2019-05-21T12:19:31.235Z,79.30
2019-05-21T12:22:36.401Z,80.34
2019-05-21T12:25:41.574Z,81.40
2019-05-21T12:28:46.822Z,82.07
2019-05-21T12:31:52.031Z,81.85
2019-05-21T12:34:57.224Z,82.82
2019-05-21T12:38:02.526Z,82.92
2019-05-21T12:41:07.750Z,82.34
2019-05-21T12:44:12.931Z,83.93
2019-05-21T12:47:18.113Z,83.52
2019-05-21T12:50:25.004Z,82.75
2019-05-21T12:53:30.148Z,83.34
2019-05-21T12:56:35.370Z,83.41
2019-05-21T12:59:40.467Z,82.65
2019-05-21T13:02:45.751Z,83.35
2019-05-21T13:05:51.003Z,84.19
2019-05-21T13:08:56.297Z,83.49
2019-05-21T13:12:01.568Z,83.56
2019-05-21T13:15:07.476Z,82.63
2019-05-21T13:18:12.716Z,82.90
2019-05-21T13:21:17.849Z,82.54
2019-05-21T13:24:23.142Z,82.16
2019-05-21T13:27:28.369Z,83.29
2019-05-21T13:30:33.630Z,81.10
2019-05-21T13:33:38.869Z,81.72
2019-05-21T13:36:44.113Z,81.83
2019-05-21T13:39:50.692Z,81.43
2019-05-21T13:42:56.008Z,80.43
2019-05-21T13:46:01.200Z,80.29
2019-05-21T13:49:06.524Z,79.91
2019-05-21T13:52:12.054Z,79.85
2019-05-21T13:55:17.566Z,79.59
2019-05-21T13:58:22.803Z,79.22
2019-05-21T14:01:40.204Z,78.35
2019-05-21T14:04:35.504Z,78.65
2019-05-21T14:07:40.970Z,79.63
2019-05-21T14:10:46.601Z,79.13
2019-05-21T14:13:51.815Z,79.65
2019-05-21T14:16:57.043Z,78.62
2019-05-21T14:20:03.190Z,79.50
2019-05-21T14:23:08.493Z,79.75
2019-05-21T14:26:13.757Z,79.33
2019-05-21T14:29:19.108Z,78.61
2019-05-21T14:32:24.269Z,79.99
2019-05-21T14:35:29.371Z,80.41
2019-05-21T14:38:34.589Z,80.26
2019-05-21T14:41:39.761Z,80.08
2019-05-21T14:44:44.942Z,79.54
2019-05-21T14:47:50.082Z,80.04
2019-05-21T14:50:55.258Z,79.85
2019-05-21T14:54:03.999Z,79.41
2019-05-21T14:57:12.452Z,78.82
2019-05-21T15:00:24.929Z,79.92
2019-05-21T15:03:30.180Z,78.41
2019-05-21T15:06:35.390Z,78.68
2019-05-21T15:09:41.647Z,78.20
2019-05-21T15:12:46.876Z,78.89
2019-05-21T15:15:52.131Z,77.95
2019-05-21T15:18:57.340Z,79.72
2019-05-21T15:22:02.550Z,79.28
2019-05-21T15:25:08.323Z,79.27
2019-05-21T15:28:13.500Z,82.46
2019-05-21T15:31:18.726Z,82.63
2019-05-21T15:34:23.961Z,83.14
2019-05-21T15:37:29.201Z,83.31
2019-05-21T15:40:34.535Z,83.82
2019-05-21T15:43:39.681Z,83.04
2019-05-21T15:46:49.964Z,82.92
2019-05-21T15:49:51.725Z,83.17
2019-05-21T15:52:57.444Z,82.04
2019-05-21T15:56:02.790Z,82.15
2019-05-21T15:59:08.172Z,83.63
2019-05-21T16:02:14.527Z,82.68
2019-05-21T16:05:19.704Z,84.02
2019-05-21T16:08:24.865Z,84.48
2019-05-21T16:11:30.154Z,86.05
2019-05-21T16:14:35.322Z,85.46
2019-05-21T16:17:40.520Z,85.77
2019-05-21T16:20:45.738Z,86.37
2019-05-21T16:23:50.937Z,85.44
2019-05-21T16:26:57.140Z,85.99
2019-05-21T16:30:02.334Z,87.04
2019-05-21T16:33:07.686Z,87.72
2019-05-21T16:36:13.048Z,88.27
2019-05-21T16:39:20.038Z,88.07
2019-05-21T16:42:25.217Z,88.95
2019-05-21T16:45:30.369Z,87.81
2019-05-21T16:48:35.536Z,87.71
2019-05-21T16:51:43.437Z,89.06
2019-05-21T16:54:47.647Z,88.16
2019-05-21T16:57:56.066Z,89.67
2019-05-21T17:01:00.558Z,89.07
2019-05-21T17:04:05.814Z,89.46
2019-05-21T17:07:11.024Z,88.25
2019-05-21T17:10:16.961Z,88.40
2019-05-21T17:13:22.182Z,88.08
2019-05-21T17:16:27.374Z,88.94
2019-05-21T17:19:32.686Z,89.50
2019-05-21T17:22:37.926Z,87.73
2019-05-21T17:25:43.128Z,88.19
2019-05-21T17:28:48.248Z,88.32
2019-05-21T17:31:55.979Z,88.30
2019-05-21T17:35:01.347Z,89.03
2019-05-21T17:38:06.507Z,90.26
2019-05-21T17:41:11.755Z,89.78
2019-05-21T17:44:16.825Z,90.96
2019-05-21T17:47:22.077Z,90.35
2019-05-21T17:50:27.469Z,90.95
2019-05-21T17:53:32.608Z,92.14
2019-05-21T17:56:37.779Z,91.97
2019-05-21T17:59:43.050Z,91.96
2019-05-21T18:02:49.766Z,89.98
2019-05-21T18:05:56.477Z,91.03
2019-05-21T18:09:08.022Z,91.04
2019-05-21T18:12:29.722Z,90.06
2019-05-21T18:15:22.127Z,91.63
2019-05-21T18:18:28.070Z,89.45
2019-05-21T18:21:34.199Z,90.83
2019-05-21T18:24:39.597Z,91.34
2019-05-21T18:27:44.759Z,90.13
2019-05-21T18:30:50.165Z,90.51
2019-05-21T18:33:55.407Z,91.88
2019-05-21T18:37:03.656Z,90.96
2019-05-21T18:40:09.651Z,91.77
2019-05-21T18:43:14.851Z,91.12
2019-05-21T18:46:20.064Z,90.97
2019-05-21T18:49:27.644Z,92.52
2019-05-21T18:52:32.427Z,92.71
2019-05-21T18:55:37.550Z,90.13
2019-05-21T18:58:43.073Z,89.00
2019-05-21T19:01:48.372Z,89.96
2019-05-21T19:04:53.632Z,89.75
2019-05-21T19:07:59.022Z,91.00
2019-05-21T19:11:04.438Z,91.71
2019-05-21T19:14:09.656Z,89.42
2019-05-21T19:17:14.859Z,88.58
2019-05-21T19:20:23.021Z,88.18
2019-05-21T19:23:27.075Z,88.01
2019-05-21T19:26:32.253Z,88.92
2019-05-21T19:29:38.495Z,90.34
2019-05-21T19:32:43.680Z,89.24
2019-05-21T19:35:48.859Z,90.45
2019-05-21T19:38:54.084Z,89.64
2019-05-21T19:41:59.374Z,89.24
2019-05-21T19:45:05.859Z,90.04
2019-05-21T19:48:12.162Z,88.84
2019-05-21T19:51:17.378Z,90.14
2019-05-21T19:54:22.641Z,90.80
2019-05-21T19:57:30.003Z,89.85
2019-05-21T20:00:39.190Z,89.60
2019-05-21T20:03:44.475Z,89.37
2019-05-21T20:06:49.646Z,89.68
2019-05-21T20:09:54.871Z,89.23
2019-05-21T20:13:00.552Z,89.92
2019-05-21T20:16:06.443Z,89.87
2019-05-21T20:19:13.990Z,89.94
2019-05-21T20:22:19.271Z,90.09
2019-05-21T20:25:25.844Z,90.79
2019-05-21T20:28:31.176Z,90.27
2019-05-21T20:31:36.646Z,90.27
2019-05-21T20:34:41.965Z,89.85
2019-05-21T20:37:48.256Z,89.38
2019-05-21T20:40:53.567Z,89.24
2019-05-21T20:43:59.533Z,90.04
2019-05-21T20:47:06.699Z,89.93
2019-05-21T20:50:14.397Z,89.12
2019-05-21T20:53:20.111Z,89.52
2019-05-21T20:56:25.283Z,89.69
2019-05-21T20:59:30.762Z,89.59
2019-05-21T21:02:37.475Z,90.63
2019-05-21T21:05:43.728Z,90.87
2019-05-21T21:08:48.923Z,89.54
2019-05-21T21:11:54.116Z,90.52
2019-05-21T21:15:00.624Z,89.68
2019-05-21T21:18:06.688Z,89.56
2019-05-21T21:21:11.828Z,91.45
2019-05-21T21:24:17.284Z,90.91
2019-05-21T21:27:23.994Z,90.55
2019-05-21T21:30:29.165Z,89.39
2019-05-21T21:33:34.603Z,90.03
2019-05-21T21:36:39.775Z,90.37
2019-05-21T21:39:45.141Z,89.93
2019-05-21T21:42:50.996Z,90.67
2019-05-21T21:45:56.400Z,89.89
2019-05-21T21:49:03.205Z,89.96
2019-05-21T21:52:09.924Z,90.61
2019-05-21T21:55:15.490Z,91.24
2019-05-21T21:58:20.686Z,90.17
2019-05-21T22:01:50.153Z,91.39
2019-05-21T22:04:57.550Z,90.46
2019-05-21T22:08:02.931Z,90.65
2019-05-21T22:11:08.617Z,92.06
2019-05-21T22:14:14.267Z,90.85
2019-05-21T22:17:19.824Z,91.58
2019-05-21T22:20:25.490Z,89.79
2019-05-21T22:24:24.699Z,90.41
2019-05-21T22:27:30.117Z,90.62
2019-05-21T22:30:36.095Z,91.27
2019-05-21T22:33:41.598Z,91.04
2019-05-21T22:36:46.858Z,90.96
2019-05-21T22:39:53.426Z,90.57
2019-05-21T22:42:58.557Z,91.16
2019-05-21T22:46:03.942Z,90.64
2019-05-21T22:49:09.076Z,90.04
2019-05-21T22:52:14.414Z,90.01
2019-05-21T22:55:20.686Z,90.90
2019-05-21T22:58:25.884Z,90.70
2019-05-21T23:01:32.860Z,89.82
2019-05-21T23:04:38.040Z,90.51
2019-05-21T23:07:44.813Z,90.16
2019-05-21T23:10:50.106Z,90.86
2019-05-21T23:13:55.283Z,90.19
2019-05-21T23:17:00.857Z,90.27
2019-05-21T23:20:12.320Z,90.60
2019-05-21T23:23:19.326Z,90.09
2019-05-21T23:26:24.664Z,89.65
2019-05-21T23:29:29.837Z,89.97
2019-05-21T23:32:35.666Z,90.01
2019-05-21T23:35:41.263Z,90.96
2019-05-21T23:38:47.864Z,91.06
2019-05-21T23:41:53.081Z,91.09
2019-05-21T23:44:58.665Z,90.81
2019-05-21T23:48:05.002Z,90.78
2019-05-21T23:51:11.077Z,91.23
2019-05-21T23:54:16.777Z,90.56
2019-05-21T23:57:29.776Z,90.29
